Time;durP1;ratioP1;P1;durP2;ratioP2;P2;SDS_P1;SDS_P2;PMS_P1;PMS_P2;Temp;Humidity;BMP_temperature;BMP_pressure;BME280_temperature;BME280_humidity;BME280_pressure;Samples;Min_cycle;Max_cycle;Signal;HPM_P1;HPM_P2
2023/07/22 00:00:37;;;;;;;2.58;2.13;;;;;20.50;98497.00;;;;5014204;28;20037;-67
2023/07/22 00:03:03;;;;;;;4.57;2.72;;;;;20.50;98497.00;;;;5013845;28;20046;-67
2023/07/22 00:05:30;;;;;;;3.70;2.78;;;;;20.50;98498.00;;;;4996025;28;20048;-67
2023/07/22 00:07:56;;;;;;;4.57;2.50;;;;;20.50;98494.00;;;;5013654;28;20045;-67
2023/07/22 00:10:23;;;;;;;4.55;2.15;;;;;20.50;98495.00;;;;5012298;28;20049;-67
2023/07/22 00:12:49;;;;;;;3.58;2.30;;;;;20.30;98496.00;;;;5013398;28;20133;-66
2023/07/22 00:15:16;;;;;;;4.65;2.78;;;;;20.10;98491.00;;;;5012251;28;20054;-66
2023/07/22 00:17:43;;;;;;;3.75;2.25;;;;;20.10;98491.00;;;;5012318;28;20046;-67
2023/07/22 00:20:11;;;;;;;4.60;2.70;;;;;20.10;98495.00;;;;5013072;28;20124;-66
2023/07/22 00:22:39;;;;;;;3.45;2.40;;;;;20.10;98496.00;;;;5013169;28;20042;-67
2023/07/22 00:25:10;;;;;;;3.17;2.13;;;;;20.10;98498.00;;;;5011427;28;20046;-67
2023/07/22 00:27:37;;;;;;;2.72;2.42;;;;;20.10;98496.00;;;;5012152;28;20049;-67
2023/07/22 00:30:09;;;;;;;3.40;2.25;;;;;20.10;98492.00;;;;5011740;28;20073;-67
2023/07/22 00:32:39;;;;;;;4.38;2.67;;;;;20.10;98488.00;;;;5011898;28;20077;-67
2023/07/22 00:35:06;;;;;;;3.00;2.42;;;;;20.10;98488.00;;;;4995885;28;20105;-67
2023/07/22 00:37:33;;;;;;;3.90;3.05;;;;;19.90;98492.00;;;;5013199;28;20104;-67
2023/07/22 00:40:03;;;;;;;3.85;2.70;;;;;19.70;98489.00;;;;5012764;28;20471;-67
2023/07/22 00:42:30;;;;;;;3.92;2.40;;;;;19.80;98496.00;;;;5013056;28;20038;-67
2023/07/22 00:44:56;;;;;;;2.60;2.38;;;;;19.80;98494.00;;;;4994856;28;20046;-67
2023/07/22 00:47:23;;;;;;;3.30;2.60;;;;;19.90;98498.00;;;;5012656;28;20057;-67
2023/07/22 00:49:51;;;;;;;3.85;2.30;;;;;19.90;98495.00;;;;5011824;28;20463;-67
2023/07/22 00:52:17;;;;;;;3.03;2.70;;;;;19.90;98500.00;;;;5012939;28;20046;-66
2023/07/22 00:54:44;;;;;;;4.55;3.05;;;;;19.80;98488.00;;;;5012127;28;20049;-67
2023/07/22 00:57:12;;;;;;;4.82;2.60;;;;;19.70;98499.00;;;;5011793;28;20136;-66
2023/07/22 00:59:40;;;;;;;4.90;2.50;;;;;19.70;98489.00;;;;5011718;28;20050;-66
2023/07/22 01:02:07;;;;;;;3.03;2.17;;;;;19.60;98487.00;;;;5012687;28;20045;-66
2023/07/22 01:04:34;;;;;;;4.20;2.40;;;;;19.60;98489.00;;;;5012574;28;20100;-67
2023/07/22 01:07:07;;;;;;;2.50;2.30;;;;;19.60;98493.00;;;;5013562;28;20522;-67
2023/07/22 01:09:37;;;;;;;3.65;2.05;;;;;19.50;98499.00;;;;5013001;28;20046;-67
2023/07/22 01:12:11;;;;;;;2.58;2.38;;;;;19.60;98497.00;;;;5011433;28;20049;-67
2023/07/22 01:14:40;;;;;;;8.48;2.22;;;;;19.60;98492.00;;;;5011245;28;20042;-67
2023/07/22 01:17:09;;;;;;;3.80;2.53;;;;;19.60;98495.00;;;;5011243;28;20446;-66
2023/07/22 01:19:35;;;;;;;2.55;2.33;;;;;19.60;98500.00;;;;5010766;28;20498;-67
2023/07/22 01:22:07;;;;;;;2.92;2.30;;;;;19.50;98498.00;;;;5011044;28;20176;-66
2023/07/22 01:24:35;;;;;;;4.30;2.40;;;;;19.50;98493.00;;;;5011032;28;20042;-67
2023/07/22 01:27:03;;;;;;;3.35;2.70;;;;;19.50;98500.00;;;;5011146;28;20509;-66
2023/07/22 01:29:30;;;;;;;3.65;2.42;;;;;19.40;98500.00;;;;5010903;28;20172;-66
2023/07/22 01:31:56;;;;;;;2.88;2.20;;;;;19.50;98495.00;;;;5012226;28;20096;-66
2023/07/22 01:34:24;;;;;;;3.20;2.47;;;;;19.50;98493.00;;;;5012169;28;20041;-66
2023/07/22 01:36:51;;;;;;;4.43;3.05;;;;;19.60;98493.00;;;;5012204;28;20052;-66
2023/07/22 01:39:18;;;;;;;3.13;2.83;;;;;19.60;98497.00;;;;5010845;28;20529;-66
2023/07/22 01:41:45;;;;;;;4.68;2.70;;;;;19.60;98505.00;;;;5011143;28;20046;-67
2023/07/22 01:44:12;;;;;;;4.43;2.70;;;;;19.70;98509.00;;;;5012135;28;20038;-66
2023/07/22 01:46:38;;;;;;;4.28;3.10;;;;;19.70;98500.00;;;;5010898;28;20062;-66
2023/07/22 01:49:10;;;;;;;6.70;4.40;;;;;19.70;98505.00;;;;5011934;28;20045;-67
2023/07/22 01:51:40;;;;;;;6.65;4.00;;;;;19.60;98495.00;;;;5010967;28;20072;-66
2023/07/22 01:54:08;;;;;;;8.50;4.28;;;;;19.50;98492.00;;;;5011025;28;20069;-67
2023/07/22 01:56:36;;;;;;;3.80;3.03;;;;;19.40;98490.00;;;;5011019;28;20053;-66
2023/07/22 01:59:02;;;;;;;8.70;4.10;;;;;19.30;98479.00;;;;5010984;28;20042;-66
2023/07/22 02:01:29;;;;;;;4.05;3.33;;;;;19.20;98486.00;;;;5010804;28;20049;-67
2023/07/22 02:03:56;;;;;;;4.10;2.92;;;;;19.00;98480.00;;;;5012231;28;20053;-67
2023/07/22 02:06:23;;;;;;;4.72;3.25;;;;;19.00;98476.00;;;;5014910;28;20141;-67
2023/07/22 02:08:51;;;;;;;4.15;3.40;;;;;18.90;98478.00;;;;4998211;28;20049;-66
2023/07/22 02:11:17;;;;;;;4.82;3.15;;;;;18.90;98478.00;;;;5014610;28;20465;-66
2023/07/22 02:13:44;;;;;;;3.25;2.50;;;;;18.70;98478.00;;;;5013871;28;20111;-66
2023/07/22 02:16:13;;;;;;;4.40;3.00;;;;;18.90;98478.00;;;;5012839;28;20049;-67
2023/07/22 02:18:40;;;;;;;2.80;2.42;;;;;18.90;98473.00;;;;5013912;28;20054;-66
2023/07/22 02:21:07;;;;;;;4.07;2.60;;;;;18.70;98478.00;;;;5011476;28;20108;-66
2023/07/22 02:23:33;;;;;;;4.35;2.80;;;;;18.50;98468.00;;;;5011681;28;20073;-66
2023/07/22 02:26:01;;;;;;;4.05;3.15;;;;;18.40;98469.00;;;;5010291;28;20131;-66
2023/07/22 02:28:27;;;;;;;5.80;2.90;;;;;18.30;98470.00;;;;5010649;28;20411;-65
2023/07/22 02:30:54;;;;;;;3.15;2.58;;;;;18.30;98469.00;;;;5010547;28;20096;-66
2023/07/22 02:33:21;;;;;;;5.05;2.50;;;;;18.30;98473.00;;;;5010396;28;20070;-66
2023/07/22 02:35:48;;;;;;;5.45;2.95;;;;;18.40;98475.00;;;;5010535;28;20046;-66
2023/07/22 02:38:15;;;;;;;3.00;2.70;;;;;18.40;98477.00;;;;5010394;28;20056;-66
2023/07/22 02:40:42;;;;;;;2.92;2.65;;;;;18.30;98477.00;;;;5010287;28;20091;-65
2023/07/22 02:43:09;;;;;;;4.38;3.15;;;;;18.30;98473.00;;;;5011552;28;20048;-66
2023/07/22 02:45:36;;;;;;;3.35;2.92;;;;;18.20;98470.00;;;;5010046;28;20046;-66
2023/07/22 02:48:04;;;;;;;6.75;3.15;;;;;18.20;98476.00;;;;5013125;28;20503;-66
2023/07/22 02:50:30;;;;;;;5.25;3.38;;;;;18.00;98466.00;;;;5013700;28;20065;-66
2023/07/22 02:52:57;;;;;;;4.50;2.97;;;;;18.00;98471.00;;;;4997446;28;20080;-66
2023/07/22 02:55:24;;;;;;;5.35;3.20;;;;;18.00;98469.00;;;;5013678;28;20046;-66
2023/07/22 02:57:51;;;;;;;6.85;3.33;;;;;17.90;98467.00;;;;4997591;28;20116;-66
2023/07/22 03:00:25;;;;;;;3.30;3.00;;;;;17.80;98460.00;;;;5013434;28;20080;-66
2023/07/22 03:02:52;;;;;;;4.05;3.15;;;;;17.70;98471.00;;;;5013587;28;20466;-66
2023/07/22 03:05:21;;;;;;;4.03;3.17;;;;;17.70;98468.00;;;;5013712;28;20150;-65
2023/07/22 03:07:47;;;;;;;5.20;3.38;;;;;17.70;98461.00;;;;5014766;28;20495;-66
2023/07/22 03:10:14;;;;;;;3.60;3.15;;;;;17.70;98461.00;;;;5014563;28;20044;-66
2023/07/22 03:12:40;;;;;;;4.28;2.70;;;;;17.80;98462.00;;;;5013402;28;20042;-66
2023/07/22 03:15:08;;;;;;;5.97;3.08;;;;;17.80;98462.00;;;;5014724;28;20116;-66
2023/07/22 03:17:36;;;;;;;5.05;3.60;;;;;17.70;98465.00;;;;5013337;28;20108;-66
2023/07/22 03:20:08;;;;;;;5.13;3.42;;;;;17.60;98464.00;;;;5013158;28;20070;-65
2023/07/22 03:22:35;;;;;;;7.68;3.97;;;;;17.50;98464.00;;;;5013426;28;20053;-66
2023/07/22 03:25:02;;;;;;;4.72;3.10;;;;;17.40;98466.00;;;;5014308;28;20040;-66
2023/07/22 03:27:28;;;;;;;3.33;3.03;;;;;17.50;98460.00;;;;5014495;28;20387;-66
2023/07/22 03:29:55;;;;;;;4.60;3.45;;;;;17.30;98458.00;;;;5014197;28;20046;-65
2023/07/22 03:32:22;;;;;;;3.92;3.55;;;;;17.30;98454.00;;;;5012949;28;20144;-65
2023/07/22 03:34:48;;;;;;;5.28;4.18;;;;;17.30;98459.00;;;;5014205;28;20042;-66
2023/07/22 03:37:15;;;;;;;5.20;3.90;;;;;17.30;98460.00;;;;5013279;28;20065;-66
2023/07/22 03:39:41;;;;;;;4.40;3.13;;;;;17.30;98462.00;;;;5012990;28;20096;-65
2023/07/22 03:42:08;;;;;;;4.68;3.17;;;;;17.20;98466.00;;;;5012936;28;20092;-66
2023/07/22 03:44:35;;;;;;;5.00;3.38;;;;;17.20;98456.00;;;;5012837;28;20050;-66
2023/07/22 03:47:02;;;;;;;4.72;3.15;;;;;17.10;98461.00;;;;5013925;28;20096;-65
2023/07/22 03:49:29;;;;;;;3.90;3.10;;;;;17.10;98463.00;;;;5012447;28;20081;-66
2023/07/22 03:51:55;;;;;;;4.47;3.63;;;;;17.20;98465.00;;;;5013903;28;20049;-65
2023/07/22 03:54:22;;;;;;;4.38;3.40;;;;;17.10;98469.00;;;;4996468;28;20070;-65
2023/07/22 03:56:49;;;;;;;4.30;3.65;;;;;17.20;98458.00;;;;5013930;28;20447;-65
2023/07/22 03:59:15;;;;;;;4.05;2.92;;;;;17.20;98461.00;;;;5011571;28;20521;-65
2023/07/22 04:01:43;;;;;;;3.55;3.25;;;;;17.10;98462.00;;;;5012529;28;20046;-64
2023/07/22 04:04:09;;;;;;;4.15;3.40;;;;;17.20;98463.00;;;;5013778;28;20088;-65
2023/07/22 04:06:36;;;;;;;5.82;3.78;;;;;17.20;98463.00;;;;5012320;28;20049;-64
2023/07/22 04:09:03;;;;;;;5.43;3.50;;;;;17.20;98471.00;;;;5012342;28;20081;-65
2023/07/22 04:11:30;;;;;;;4.97;2.92;;;;;17.20;98467.00;;;;5013633;28;20510;-66
2023/07/22 04:13:56;;;;;;;7.05;3.75;;;;;17.20;98466.00;;;;5012480;28;20077;-65
2023/07/22 04:16:23;;;;;;;4.90;3.70;;;;;17.20;98471.00;;;;5013483;28;20038;-66
2023/07/22 04:18:51;;;;;;;3.78;3.47;;;;;17.30;98472.00;;;;5012275;28;20077;-66
2023/07/22 04:21:17;;;;;;;7.63;3.72;;;;;17.30;98470.00;;;;5013415;28;20410;-66
2023/07/22 04:23:44;;;;;;;5.90;3.80;;;;;17.30;98470.00;;;;5013042;28;20494;-66
2023/07/22 04:26:11;;;;;;;6.22;3.72;;;;;17.40;98472.00;;;;5011868;28;20080;-66
2023/07/22 04:28:38;;;;;;;4.50;3.70;;;;;17.40;98474.00;;;;5012126;28;20060;-66
2023/07/22 04:31:05;;;;;;;4.40;3.60;;;;;17.50;98477.00;;;;5012961;28;20045;-66
2023/07/22 04:33:34;;;;;;;4.32;3.70;;;;;17.50;98473.00;;;;5012061;28;20045;-66
2023/07/22 04:36:01;;;;;;;4.95;3.78;;;;;17.50;98469.00;;;;5013455;28;20165;-66
2023/07/22 04:38:28;;;;;;;4.55;3.55;;;;;17.50;98472.00;;;;5013180;28;20038;-66
2023/07/22 04:40:54;;;;;;;5.40;3.90;;;;;17.60;98463.00;;;;5012976;28;20092;-68
2023/07/22 04:43:21;;;;;;;4.75;3.42;;;;;17.60;98463.00;;;;5011880;28;20123;-66
2023/07/22 04:45:48;;;;;;;5.07;4.60;;;;;17.60;98464.00;;;;5013016;28;20038;-66
2023/07/22 04:48:20;;;;;;;7.25;5.65;;;;;17.60;98464.00;;;;4995577;28;20165;-66
2023/07/22 04:50:46;;;;;;;5.05;3.70;;;;;17.60;98471.00;;;;5011822;28;20437;-66
2023/07/22 04:53:13;;;;;;;6.40;4.70;;;;;17.70;98475.00;;;;5011582;28;20053;-66
2023/07/22 04:55:41;;;;;;;9.68;7.55;;;;;17.70;98475.00;;;;5012815;28;20409;-67
2023/07/22 04:58:09;;;;;;;6.70;5.30;;;;;17.60;98464.00;;;;5011839;28;20125;-65
2023/07/22 05:00:37;;;;;;;4.22;3.83;;;;;17.60;98470.00;;;;5012738;28;20045;-66
2023/07/22 05:03:04;;;;;;;4.05;3.65;;;;;17.70;98475.00;;;;5011669;28;20054;-65
2023/07/22 05:05:32;;;;;;;5.75;4.38;;;;;17.70;98480.00;;;;5013008;28;20584;-65
2023/07/22 05:07:58;;;;;;;4.10;3.60;;;;;17.70;98477.00;;;;5011535;28;20076;-66
2023/07/22 05:10:25;;;;;;;4.72;4.10;;;;;17.70;98478.00;;;;5011979;28;20060;-66
2023/07/22 05:12:51;;;;;;;6.07;4.13;;;;;17.70;98480.00;;;;5012725;28;20046;-66
2023/07/22 05:15:18;;;;;;;3.90;3.53;;;;;17.60;98476.00;;;;5011492;28;20045;-65
2023/07/22 05:17:45;;;;;;;5.20;3.63;;;;;17.70;98480.00;;;;4995364;28;20128;-66
2023/07/22 05:20:12;;;;;;;5.32;4.18;;;;;17.80;98479.00;;;;5012493;28;20056;-66
2023/07/22 05:22:40;;;;;;;5.20;4.63;;;;;18.00;98482.00;;;;5012885;28;20050;-66
2023/07/22 05:25:07;;;;;;;4.40;3.97;;;;;18.10;98477.00;;;;4994942;28;20076;-65
2023/07/22 05:27:34;;;;;;;4.65;4.10;;;;;18.30;98489.00;;;;4997049;28;20507;-67
2023/07/22 05:30:01;;;;;;;5.28;4.20;;;;;18.40;98477.00;;;;5010928;28;20045;-67
2023/07/22 05:32:30;;;;;;;13.48;9.57;;;;;18.30;98483.00;;;;5012223;28;20128;-66
2023/07/22 05:35:01;;;;;;;4.95;4.22;;;;;18.30;98479.00;;;;5012283;28;20041;-67
2023/07/22 05:37:27;;;;;;;4.80;3.40;;;;;18.50;98489.00;;;;5012487;28;20046;-66
2023/07/22 05:39:54;;;;;;;4.55;3.30;;;;;18.60;98481.00;;;;5011932;28;20077;-66
2023/07/22 05:42:21;;;;;;;3.88;3.50;;;;;18.80;98488.00;;;;5012394;28;20046;-67
2023/07/22 05:44:48;;;;;;;5.00;3.35;;;;;18.90;98490.00;;;;5012345;28;20054;-67
2023/07/22 05:47:14;;;;;;;6.20;3.97;;;;;19.00;98495.00;;;;5010930;28;20133;-66
2023/07/22 05:49:44;;;;;;;5.88;5.28;;;;;18.90;98491.00;;;;4994811;28;20050;-66
2023/07/22 05:52:11;;;;;;;6.90;3.88;;;;;18.80;98492.00;;;;5010960;28;20124;-67
2023/07/22 05:54:37;;;;;;;4.55;3.75;;;;;19.00;98495.00;;;;5011093;28;20435;-66
2023/07/22 05:57:04;;;;;;;6.63;4.50;;;;;19.20;98497.00;;;;5012182;28;20038;-66
2023/07/22 05:59:32;;;;;;;4.18;3.78;;;;;19.20;98497.00;;;;5011856;28;20048;-66
2023/07/22 06:01:58;;;;;;;4.25;3.58;;;;;19.30;98499.00;;;;5012124;28;20084;-66
2023/07/22 06:04:25;;;;;;;3.63;3.33;;;;;19.40;98497.00;;;;5010847;28;20046;-67
2023/07/22 06:06:52;;;;;;;3.40;3.10;;;;;19.50;98496.00;;;;5012105;28;20046;-67
2023/07/22 06:09:18;;;;;;;7.25;3.45;;;;;19.70;98492.00;;;;5012219;28;20052;-66
2023/07/22 06:11:45;;;;;;;3.85;2.78;;;;;19.70;98508.00;;;;5012028;28;20136;-66
2023/07/22 06:14:11;;;;;;;5.47;3.15;;;;;19.90;98500.00;;;;5011957;28;20572;-66
2023/07/22 06:16:38;;;;;;;4.05;3.20;;;;;19.90;98501.00;;;;5012379;28;20116;-66
2023/07/22 06:19:05;;;;;;;5.78;2.90;;;;;19.90;98503.00;;;;5010987;28;20430;-65
2023/07/22 06:21:31;;;;;;;5.30;3.30;;;;;19.90;98497.00;;;;5011282;28;20131;-66
2023/07/22 06:23:58;;;;;;;6.88;2.63;;;;;20.00;98499.00;;;;5014797;28;20129;-66
2023/07/22 06:26:25;;;;;;;3.33;2.70;;;;;20.20;98503.00;;;;5016723;28;20125;-66
2023/07/22 06:28:52;;;;;;;3.20;2.80;;;;;20.30;98501.00;;;;5016508;28;20045;-67
2023/07/22 06:31:18;;;;;;;3.70;2.80;;;;;20.30;98513.00;;;;5000430;28;20077;-66
2023/07/22 06:33:45;;;;;;;3.03;2.70;;;;;20.40;98504.00;;;;5015176;28;20077;-66
2023/07/22 06:36:12;;;;;;;4.43;2.92;;;;;20.50;98506.00;;;;5015963;28;20038;-66
2023/07/22 06:38:39;;;;;;;4.22;2.88;;;;;20.60;98509.00;;;;5014918;28;20128;-67
2023/07/22 06:41:05;;;;;;;3.63;3.03;;;;;20.60;98508.00;;;;5015314;28;20049;-66
2023/07/22 06:43:32;;;;;;;3.22;2.85;;;;;20.60;98515.00;;;;5015569;28;20144;-67
2023/07/22 06:45:59;;;;;;;2.97;2.50;;;;;20.80;98506.00;;;;5015748;28;20038;-67
2023/07/22 06:48:26;;;;;;;3.45;3.10;;;;;20.90;98507.00;;;;5015306;28;20046;-66
2023/07/22 06:50:52;;;;;;;3.47;2.90;;;;;21.10;98506.00;;;;5014959;28;20070;-67
2023/07/22 06:53:19;;;;;;;2.58;2.22;;;;;21.10;98507.00;;;;5015509;28;20049;-67
2023/07/22 06:55:51;;;;;;;4.10;2.53;;;;;21.10;98503.00;;;;5015181;28;20050;-67
2023/07/22 06:58:22;;;;;;;4.28;2.85;;;;;21.30;98511.00;;;;5013764;28;20049;-66
2023/07/22 07:00:55;;;;;;;3.08;2.45;;;;;21.30;98510.00;;;;5015001;28;20046;-67
2023/07/22 07:03:23;;;;;;;4.75;3.00;;;;;21.40;98512.00;;;;5013975;28;20133;-66
2023/07/22 07:05:56;;;;;;;3.85;2.28;;;;;21.50;98510.00;;;;5014768;28;20042;-66
2023/07/22 07:08:23;;;;;;;4.60;3.53;;;;;21.60;98505.00;;;;5014923;28;20108;-67
2023/07/22 07:10:51;;;;;;;3.67;3.03;;;;;21.80;98511.00;;;;5013634;28;20406;-67
2023/07/22 07:13:18;;;;;;;4.55;3.40;;;;;21.90;98509.00;;;;5015077;28;20074;-66
2023/07/22 07:15:51;;;;;;;3.97;3.53;;;;;21.80;98506.00;;;;5014859;28;20074;-66
2023/07/22 07:18:18;;;;;;;3.13;2.47;;;;;21.90;98505.00;;;;5013463;28;20046;-66
2023/07/22 07:20:44;;;;;;;2.42;2.22;;;;;22.00;98507.00;;;;5013254;28;20339;-67
2023/07/22 07:23:13;;;;;;;2.50;2.30;;;;;22.20;98516.00;;;;5013500;28;20124;-67
2023/07/22 07:25:39;;;;;;;2.60;2.10;;;;;22.40;98508.00;;;;5014473;28;20044;-66
2023/07/22 07:28:06;;;;;;;3.33;3.03;;;;;22.60;98509.00;;;;4996956;28;20534;-66
2023/07/22 07:30:33;;;;;;;3.97;2.80;;;;;22.70;98516.00;;;;5014421;28;20128;-66
2023/07/22 07:32:59;;;;;;;3.67;2.92;;;;;22.80;98516.00;;;;5014159;28;20052;-66
2023/07/22 07:35:26;;;;;;;4.40;2.60;;;;;23.00;98511.00;;;;5014504;28;20045;-66
2023/07/22 07:37:52;;;;;;;4.65;3.00;;;;;23.20;98513.00;;;;5013532;28;20054;-66
2023/07/22 07:40:19;;;;;;;3.63;2.50;;;;;23.30;98515.00;;;;5015787;28;20196;-66
2023/07/22 07:42:45;;;;;;;3.35;2.40;;;;;23.30;98519.00;;;;5017312;28;20045;-66
2023/07/22 07:45:12;;;;;;;2.90;2.60;;;;;23.30;98515.00;;;;5000595;28;20498;-66
2023/07/22 07:47:38;;;;;;;5.05;3.15;;;;;23.30;98514.00;;;;5019648;28;20033;-65
2023/07/22 07:50:06;;;;;;;3.40;2.38;;;;;23.40;98515.00;;;;5018198;28;20046;-67
2023/07/22 07:52:33;;;;;;;4.40;3.00;;;;;23.50;98521.00;;;;5020381;28;20052;-67
2023/07/22 07:55:00;;;;;;;3.10;2.22;;;;;23.60;98516.00;;;;5020977;28;20073;-67
2023/07/22 07:57:26;;;;;;;11.02;3.33;;;;;23.50;98519.00;;;;5020659;28;20081;-67
2023/07/22 07:59:53;;;;;;;3.72;2.45;;;;;23.50;98521.00;;;;5019892;28;20520;-67
2023/07/22 08:02:19;;;;;;;3.67;2.83;;;;;23.50;98523.00;;;;5020967;28;20084;-67
2023/07/22 08:04:46;;;;;;;4.35;3.72;;;;;23.60;98517.00;;;;5019179;28;20526;-67
2023/07/22 08:07:16;;;;;;;5.82;3.88;;;;;23.70;98519.00;;;;5019259;28;20050;-67
2023/07/22 08:09:42;;;;;;;4.05;2.65;;;;;23.90;98524.00;;;;5020370;28;20060;-67
2023/07/22 08:12:09;;;;;;;4.68;3.17;;;;;24.00;98521.00;;;;5020820;28;20468;-67
2023/07/22 08:14:36;;;;;;;4.38;2.80;;;;;24.00;98521.00;;;;5018949;28;20528;-67
2023/07/22 08:17:03;;;;;;;3.97;3.00;;;;;24.10;98524.00;;;;5020310;28;20118;-67
2023/07/22 08:19:30;;;;;;;2.95;2.50;;;;;24.20;98516.00;;;;5020441;28;20046;-67
2023/07/22 08:21:56;;;;;;;3.95;3.13;;;;;24.30;98527.00;;;;5019105;28;20045;-67
2023/07/22 08:24:23;;;;;;;7.78;2.78;;;;;24.40;98529.00;;;;5019562;28;20041;-67
2023/07/22 08:26:49;;;;;;;4.65;2.20;;;;;24.40;98526.00;;;;5022353;28;20046;-67
2023/07/22 08:29:16;;;;;;;2.85;2.20;;;;;24.40;98529.00;;;;5022009;28;20049;-68
2023/07/22 08:31:42;;;;;;;2.42;2.22;;;;;24.50;98527.00;;;;5022564;28;20052;-65
2023/07/22 08:34:09;;;;;;;2.40;2.20;;;;;24.60;98530.00;;;;5021878;28;20414;-65
2023/07/22 08:36:36;;;;;;;4.68;2.42;;;;;24.70;98530.00;;;;5022172;28;20042;-67
2023/07/22 08:39:03;;;;;;;2.47;2.20;;;;;24.70;98527.00;;;;5003389;28;20152;-66
2023/07/22 08:41:30;;;;;;;4.13;2.58;;;;;24.90;98534.00;;;;5020890;28;20057;-66
2023/07/22 08:44:00;;;;;;;2.90;2.38;;;;;25.00;98543.00;;;;5020463;28;20105;-66
2023/07/22 08:46:31;;;;;;;3.67;2.22;;;;;25.10;98537.00;;;;5020863;28;20072;-66
2023/07/22 08:49:00;;;;;;;2.67;2.30;;;;;25.10;98537.00;;;;5017676;28;20049;-65
2023/07/22 08:51:28;;;;;;;4.13;2.22;;;;;25.20;98539.00;;;;5016718;28;20052;-65
2023/07/22 08:53:56;;;;;;;3.55;2.20;;;;;25.10;98536.00;;;;5013220;28;20096;-64
2023/07/22 08:56:37;;;;;;;2.25;2.00;;;;;25.00;98543.00;;;;5012397;28;20293;-65
2023/07/22 08:59:05;;;;;;;3.67;2.20;;;;;24.90;98542.00;;;;5013407;28;20137;-65
2023/07/22 09:01:35;;;;;;;6.40;2.55;;;;;24.80;98537.00;;;;5012934;28;20053;-65
2023/07/22 09:04:02;;;;;;;8.82;2.85;;;;;24.90;98529.00;;;;5012092;28;20413;-65
2023/07/22 09:06:29;;;;;;;9.43;2.80;;;;;25.00;98526.00;;;;5013302;28;20053;-65
2023/07/22 09:08:56;;;;;;;5.18;2.85;;;;;25.20;98527.00;;;;5016497;28;20053;-65
2023/07/22 09:11:24;;;;;;;5.95;4.65;;;;;25.20;98516.00;;;;5011679;28;20434;-65
2023/07/22 09:13:52;;;;;;;5.97;3.92;;;;;25.20;98525.00;;;;5012859;28;20060;-65
2023/07/22 09:16:19;;;;;;;5.80;4.10;;;;;25.40;98509.00;;;;5012711;28;20116;-65
2023/07/22 09:18:45;;;;;;;3.30;2.53;;;;;25.50;98499.00;;;;5012609;28;20042;-65
2023/07/22 09:21:12;;;;;;;5.30;2.42;;;;;25.70;98496.00;;;;5012533;28;20528;-65
2023/07/22 09:23:39;;;;;;;3.00;2.42;;;;;26.00;98498.00;;;;5011740;28;20046;-64
2023/07/22 09:26:13;;;;;;;2.47;2.28;;;;;26.30;98504.00;;;;5012394;28;20042;-65
2023/07/22 09:28:54;;;;;;;4.22;2.10;;;;;26.50;98514.00;;;;5012731;28;20402;-65
2023/07/22 09:31:25;;;;;;;3.13;2.20;;;;;26.60;98509.00;;;;4994659;28;20056;-65
2023/07/22 09:33:55;;;;;;;3.00;2.20;;;;;26.80;98516.00;;;;5012543;28;20050;-65
2023/07/22 09:36:22;;;;;;;4.47;2.20;;;;;26.90;98519.00;;;;5012576;28;20050;-65
2023/07/22 09:39:02;;;;;;;4.20;2.20;;;;;27.10;98509.00;;;;5012636;28;20046;-65
2023/07/22 09:41:30;;;;;;;4.15;3.10;;;;;27.00;98520.00;;;;5012047;28;20473;-65
2023/07/22 09:44:01;;;;;;;3.08;2.17;;;;;26.80;98512.00;;;;5012653;28;20064;-65
2023/07/22 09:46:35;;;;;;;4.63;2.10;;;;;26.90;98507.00;;;;5011418;28;20053;-65
2023/07/22 09:49:08;;;;;;;4.90;2.97;;;;;26.90;98515.00;;;;5011079;28;20064;-65
2023/07/22 09:51:36;;;;;;;3.13;2.45;;;;;26.90;98513.00;;;;5012532;28;20490;-65
2023/07/22 09:54:22;;;;;;;3.08;2.20;;;;;26.90;98495.00;;;;5012125;28;20223;-66
2023/07/22 09:56:49;;;;;;;3.13;2.28;;;;;27.00;98495.00;;;;5013470;28;20046;-65
2023/07/22 09:59:21;;;;;;;2.90;2.20;;;;;27.00;98501.00;;;;5015172;28;20034;-65
2023/07/22 10:01:51;;;;;;;2.65;2.20;;;;;27.10;98499.00;;;;5016067;28;20100;-66
2023/07/22 10:04:21;;;;;;;3.67;2.15;;;;;27.40;98495.00;;;;5016323;28;20042;-65
2023/07/22 10:06:48;;;;;;;3.70;1.98;;;;;27.50;98493.00;;;;5016413;28;20046;-65
2023/07/22 10:09:16;;;;;;;3.67;2.75;;;;;27.60;98484.00;;;;5015921;28;20129;-65
2023/07/22 10:11:43;;;;;;;2.30;2.10;;;;;27.60;98488.00;;;;5015577;28;20065;-69
2023/07/22 10:14:12;;;;;;;2.97;2.13;;;;;27.70;98503.00;;;;5015146;28;20452;-68
2023/07/22 10:16:39;;;;;;;5.18;1.83;;;;;27.80;98501.00;;;;5019214;28;20038;-71
2023/07/22 10:19:06;;;;;;;4.40;2.25;;;;;27.80;98496.00;;;;5019454;28;20053;-69
2023/07/22 10:21:35;;;;;;;4.10;2.50;;;;;27.90;98497.00;;;;5024516;28;20100;-68
2023/07/22 10:24:02;;;;;;;2.83;2.20;;;;;27.80;98494.00;;;;5010629;28;20054;-66
2023/07/22 10:26:29;;;;;;;4.28;2.63;;;;;27.60;98503.00;;;;4998509;28;20073;-69
2023/07/22 10:29:12;;;;;;;3.50;2.00;;;;;27.30;98498.00;;;;5014561;28;20053;-69
2023/07/22 10:31:39;;;;;;;4.50;2.25;;;;;27.30;98495.00;;;;5015517;28;20613;-69
2023/07/22 10:34:05;;;;;;;3.13;2.17;;;;;27.30;98490.00;;;;5015775;28;20053;-68
2023/07/22 10:36:32;;;;;;;2.60;1.98;;;;;27.20;98504.00;;;;5015239;28;20045;-68
2023/07/22 10:38:59;;;;;;;2.40;2.20;;;;;27.10;98498.00;;;;5015956;28;20124;-67
2023/07/22 10:41:30;;;;;;;2.55;2.03;;;;;27.00;98497.00;;;;5014806;28;20065;-67
2023/07/22 10:43:59;;;;;;;2.63;2.22;;;;;26.80;98491.00;;;;5014102;28;20080;-67
2023/07/22 10:46:34;;;;;;;4.82;2.50;;;;;26.80;98490.00;;;;5015313;28;20077;-68
2023/07/22 10:49:13;;;;;;;5.32;2.22;;;;;26.70;98500.00;;;;5013978;28;20057;-68
2023/07/22 10:51:40;;;;;;;3.00;2.45;;;;;26.50;98488.00;;;;5015535;28;20046;-68
2023/07/22 10:54:14;;;;;;;3.28;2.40;;;;;26.40;98486.00;;;;4997653;28;20045;-68
2023/07/22 10:56:42;;;;;;;2.42;2.13;;;;;26.30;98496.00;;;;5015574;28;20092;-68
2023/07/22 10:59:12;;;;;;;3.13;2.45;;;;;26.10;98489.00;;;;5015615;28;20049;-67
2023/07/22 11:01:43;;;;;;;4.63;2.47;;;;;25.90;98491.00;;;;5018606;28;20046;-68
2023/07/22 11:04:30;;;;;;;3.42;2.75;;;;;25.90;98482.00;;;;5019866;28;20054;-68
2023/07/22 11:07:08;;;;;;;6.70;2.53;;;;;26.00;98479.00;;;;5016896;28;20414;-68
2023/07/22 11:09:36;;;;;;;4.90;2.42;;;;;26.20;98484.00;;;;5016051;28;20053;-68
2023/07/22 11:12:11;;;;;;;4.43;2.80;;;;;26.40;98481.00;;;;5016920;28;20129;-68
2023/07/22 11:14:52;;;;;;;5.75;3.60;;;;;26.60;98487.00;;;;5016151;28;20045;-67
2023/07/22 11:17:31;;;;;;;3.08;2.85;;;;;26.80;98477.00;;;;5017227;28;20073;-67
2023/07/22 11:20:00;;;;;;;5.35;2.60;;;;;27.00;98480.00;;;;5015742;28;20105;-68
2023/07/22 11:22:30;;;;;;;3.88;2.45;;;;;26.90;98467.00;;;;5016994;28;20045;-67
2023/07/22 11:25:00;;;;;;;6.10;3.05;;;;;27.20;98469.00;;;;5017409;28;20073;-68
2023/07/22 11:27:28;;;;;;;6.65;2.35;;;;;27.20;98467.00;;;;5017166;28;20049;-68
2023/07/22 11:29:58;;;;;;;4.10;2.90;;;;;27.30;98469.00;;;;5016553;28;20054;-68
2023/07/22 11:32:24;;;;;;;4.95;3.05;;;;;27.40;98464.00;;;;5017090;28;20061;-68
2023/07/22 11:34:55;;;;;;;4.43;3.00;;;;;27.50;98456.00;;;;5015854;28;20112;-68
2023/07/22 11:37:22;;;;;;;4.75;2.53;;;;;27.30;98468.00;;;;5016359;28;20046;-68
2023/07/22 11:39:49;;;;;;;4.10;2.58;;;;;27.30;98452.00;;;;5016849;28;20495;-68
2023/07/22 11:42:16;;;;;;;4.65;2.40;;;;;27.30;98456.00;;;;5015805;28;20050;-68
2023/07/22 11:44:43;;;;;;;4.80;3.45;;;;;27.30;98453.00;;;;5016441;28;20116;-68
2023/07/22 11:47:09;;;;;;;4.35;2.45;;;;;27.60;98455.00;;;;5016235;28;20129;-67
2023/07/22 11:49:47;;;;;;;7.60;5.10;;;;;27.80;98456.00;;;;5016107;28;20042;-68
2023/07/22 11:52:17;;;;;;;3.85;2.75;;;;;27.80;98453.00;;;;5015210;28;20054;-68
2023/07/22 11:54:45;;;;;;;3.97;3.30;;;;;27.60;98459.00;;;;5017562;28;20061;-68
2023/07/22 11:57:21;;;;;;;7.72;2.88;;;;;27.60;98449.00;;;;4999646;28;20144;-68
2023/07/22 11:59:49;;;;;;;6.93;2.95;;;;;27.60;98439.00;;;;5001063;28;20081;-68
2023/07/22 12:02:17;;;;;;;6.68;3.42;;;;;27.80;98440.00;;;;5015551;28;20129;-68
2023/07/22 12:05:00;;;;;;;3.63;2.83;;;;;27.90;98440.00;;;;5015746;28;20096;-67
2023/07/22 12:07:32;;;;;;;6.10;3.05;;;;;28.10;98444.00;;;;5015897;28;20491;-68
2023/07/22 12:10:05;;;;;;;4.40;2.92;;;;;28.10;98430.00;;;;5013497;28;20050;-68
2023/07/22 12:12:36;;;;;;;;;;;;;28.10;98440.00;;;;5013701;28;20412;-68
2023/07/22 12:15:17;;;;;;;4.20;3.20;;;;;28.20;98437.00;;;;4996932;28;20454;-68
2023/07/22 12:17:56;;;;;;;14.98;12.55;;;;;28.30;98441.00;;;;5013459;28;20128;-68
2023/07/22 12:20:31;;;;;;;6.97;3.83;;;;;28.30;98440.00;;;;5011440;28;20049;-68
2023/07/22 12:22:57;;;;;;;4.38;3.05;;;;;28.30;98433.00;;;;5012365;28;20458;-68